Time;durP1;ratioP1;P1;durP2;ratioP2;P2;SDS_P1;SDS_P2;PMS_P1;PMS_P2;Temp;Humidity;BMP_temperature;BMP_pressure;BME280_temperature;BME280_humidity;BME280_pressure;Samples;Min_cycle;Max_cycle;Signal;HPM_P1;HPM_P2
2023/01/17 00:01:14;;;;;;;5.43;1.10;;;;;;;5.62;69.53;98546.44;5042436;28;20101;-45
2023/01/17 00:11:59;;;;;;;6.97;0.90;;;;;;;6.00;67.75;98538.53;5042618;28;20052;-44
2023/01/17 00:14:26;;;;;;;3.55;0.80;;;;;;;6.08;67.24;98543.66;5045026;28;20037;-45
2023/01/17 00:16:51;;;;;;;3.85;0.60;;;;;;;6.15;66.79;98536.72;5044459;28;20529;-43
2023/01/17 01:33:45;;;;;;;4.70;0.70;;;;;;;5.91;66.26;98620.50;5046900;28;20048;-41
2023/01/17 01:36:11;;;;;;;5.85;0.70;;;;;;;5.79;66.91;98630.84;5037820;28;20033;-45
2023/01/17 01:38:37;;;;;;;3.95;0.65;;;;;;;5.53;68.47;98639.53;5041934;28;20574;-42
2023/01/17 01:41:03;;;;;;;5.07;0.85;;;;;;;5.62;68.32;98629.16;5037496;28;20448;-40
2023/01/17 01:43:45;;;;;;;5.57;0.75;;;;;;;5.54;67.91;98637.81;5042049;28;20495;-41
2023/01/17 01:46:15;;;;;;;6.20;0.77;;;;;;;5.54;67.80;98641.25;5037818;28;20361;-42
2023/01/17 01:48:47;;;;;;;5.43;0.90;;;;;;;5.47;68.55;98652.47;5041750;28;20040;-42
2023/01/17 01:51:17;;;;;;;5.53;0.80;;;;;;;5.42;68.90;98648.16;5037193;28;20037;-41
2023/01/17 01:53:46;;;;;;;8.65;0.63;;;;;;;5.34;69.32;98650.75;5042138;28;20079;-39
2023/01/17 01:56:14;;;;;;;5.05;0.60;;;;;;;5.54;68.91;98654.19;5037880;28;20036;-40
2023/01/17 01:58:43;;;;;;;3.28;0.60;;;;;;;5.59;68.60;98655.03;5041535;28;20044;-41
2023/01/17 02:01:08;;;;;;;7.82;1.10;;;;;;;5.63;68.19;98653.28;5036974;28;20040;-44
2023/01/17 02:03:35;;;;;;;5.10;0.70;;;;;;;5.66;68.17;98653.28;5041109;28;20127;-42
2023/01/17 02:06:24;;;;;;;5.03;0.88;;;;;;;5.43;67.52;98655.06;5037744;28;20075;-40
2023/01/17 02:08:49;;;;;;;6.95;0.82;;;;;;;5.55;67.18;98655.03;5041677;28;20477;-41
2023/01/17 02:11:15;;;;;;;7.18;0.65;;;;;;;5.68;66.83;98656.69;5035497;28;20037;-44
2023/01/17 02:13:41;;;;;;;5.30;0.90;;;;;;;5.64;66.55;98661.03;5041281;28;20045;-43
2023/01/17 02:16:09;;;;;;;6.78;0.80;;;;;;;5.80;66.40;98672.19;5035936;28;20037;-45
2023/01/17 02:18:53;;;;;;;5.93;0.80;;;;;;;5.51;65.60;98672.25;5041563;28;20414;-43
2023/01/17 02:21:22;;;;;;;7.95;1.00;;;;;;;5.79;65.22;98670.50;5036900;28;20033;-42
2023/01/17 02:23:57;;;;;;;4.68;0.70;;;;;;;5.96;64.86;98678.22;5041127;28;20486;-46
2023/01/17 02:26:56;;;;;;;5.63;0.60;;;;;;;5.81;65.42;98685.97;5037910;28;20047;-42
2023/01/17 02:29:53;;;;;;;5.18;0.68;;;;;;;5.04;65.47;98698.13;5037587;28;20511;-43
2023/01/17 02:32:34;;;;;;;5.43;0.50;;;;;;;5.27;64.17;98709.31;5037044;28;20048;-44
2023/01/17 02:35:57;;;;;;;3.30;0.43;;;;;;;5.72;63.16;98699.81;5040184;28;20037;-40
2023/01/17 02:38:49;;;;;;;1.95;0.38;;;;;;;6.01;61.50;98692.00;4996255;28;20041;-41
2023/01/17 02:41:20;;;;;;;2.78;0.55;;;;;;;6.07;61.02;98687.66;5036382;28;20037;-41
2023/01/17 02:43:49;;;;;;;5.40;0.65;;;;;;;6.10;60.00;98685.03;5041870;28;20075;-40
2023/01/17 02:46:14;;;;;;;2.92;0.50;;;;;;;5.95;60.45;98692.00;5037751;28;20041;-41
2023/01/17 02:48:40;;;;;;;2.40;0.47;;;;;;;5.78;59.15;98688.59;5042581;28;20171;-41
2023/01/17 02:51:41;;;;;;;4.43;0.57;;;;;;;5.92;58.72;98684.25;5037282;28;20124;-40
2023/01/17 02:54:29;;;;;;;2.67;0.40;;;;;;;6.20;58.96;98672.94;5037546;28;20065;-41
2023/01/17 02:57:27;;;;;;;5.15;0.60;;;;;;;6.39;58.67;98663.38;5037997;28;20036;-44
2023/01/17 03:00:02;;;;;;;4.80;0.57;;;;;;;5.91;60.39;98673.06;5021438;28;20515;-37
2023/01/17 03:03:06;;;;;;;2.47;0.43;;;;;;;6.04;60.06;98676.44;5042122;28;20037;-39
2023/01/17 03:05:53;;;;;;;5.35;0.50;;;;;;;6.10;60.53;98679.00;5042427;28;20503;-43
2023/01/17 03:08:19;;;;;;;5.68;0.60;;;;;;;5.99;60.37;98680.78;5040913;28;20025;-40
2023/01/17 03:10:45;;;;;;;4.25;0.82;;;;;;;6.01;60.70;98676.47;5043598;28;20033;-41
2023/01/17 03:13:11;;;;;;;4.63;0.70;;;;;;;6.04;60.99;98681.63;5041339;28;20041;-41
2023/01/17 03:15:38;;;;;;;6.63;0.70;;;;;;;5.95;62.03;98677.34;5044623;28;20052;-40
2023/01/17 03:18:10;;;;;;;7.95;0.80;;;;;;;5.95;62.74;98692.00;5040525;28;20566;-41
2023/01/17 03:20:36;;;;;;;8.95;0.90;;;;;;;6.00;63.03;98685.09;5043717;28;20507;-40
2023/01/17 03:23:02;;;;;;;6.50;0.77;;;;;;;6.12;63.07;98685.03;5040722;28;20048;-43
2023/01/17 03:25:27;;;;;;;7.28;0.90;;;;;;;6.23;62.99;98685.84;5044506;28;20102;-41
2023/01/17 03:27:52;;;;;;;7.95;1.00;;;;;;;6.31;62.61;98689.28;5044231;28;20064;-36
2023/01/17 03:30:20;;;;;;;6.53;0.90;;;;;;;6.25;61.82;98680.69;5039858;28;20029;-40
2023/01/17 03:32:45;;;;;;;5.78;0.77;;;;;;;6.32;61.62;98692.72;5044075;28;20048;-42
2023/01/17 03:35:11;;;;;;;7.05;0.80;;;;;;;6.60;61.33;98693.44;5040155;28;20034;-42
2023/01/17 03:37:36;;;;;;;7.03;1.00;;;;;;;6.45;61.71;98690.09;5043996;28;20040;-41
2023/01/17 03:40:02;;;;;;;5.70;0.63;;;;;;;6.27;61.18;98690.16;5040236;28;20044;-45
2023/01/17 03:42:27;;;;;;;3.92;0.82;;;;;;;6.44;60.81;98697.84;5042872;28;20048;-42
2023/01/17 03:44:52;;;;;;;5.00;0.73;;;;;;;6.42;60.97;98700.44;5043998;28;20483;-36
2023/01/17 03:47:18;;;;;;;7.50;1.00;;;;;;;6.48;60.20;98696.97;5039689;28;20391;-43
2023/01/17 03:49:43;;;;;;;9.20;0.90;;;;;;;6.49;60.41;98696.97;5043481;28;20032;-41
2023/01/17 03:52:09;;;;;;;3.90;0.82;;;;;;;6.43;59.75;98694.41;5038163;28;20106;-40
2023/01/17 03:54:34;;;;;;;7.50;0.98;;;;;;;6.26;60.45;98708.28;5043393;28;20503;-42
2023/01/17 03:56:59;;;;;;;6.45;1.30;;;;;;;6.49;59.66;98703.84;5039680;28;20503;-42
2023/01/17 03:59:25;;;;;;;7.10;1.00;;;;;;;6.41;60.13;98701.31;5043878;28;20068;-42
2023/01/17 04:01:50;;;;;;;6.70;1.15;;;;;;;6.27;59.86;98704.84;5042643;28;20416;-41
2023/01/17 04:04:15;;;;;;;6.32;0.82;;;;;;;6.36;59.79;98710.81;5039337;28;20111;-43
2023/01/17 04:06:41;;;;;;;4.35;0.68;;;;;;;6.33;59.78;98709.97;5043900;28;20495;-41
2023/01/17 04:09:06;;;;;;;10.57;0.90;;;;;;;6.39;60.34;98705.66;5039202;28;20292;-41
2023/01/17 04:11:32;;;;;;;3.78;0.85;;;;;;;6.56;60.13;98709.88;5042377;28;20048;-47
2023/01/17 04:13:57;;;;;;;5.07;0.82;;;;;;;6.55;59.79;98714.19;5039421;28;20068;-40
2023/01/17 04:16:27;;;;;;;5.10;0.65;;;;;;;6.40;59.70;98716.88;5042970;28;20033;-42
2023/01/17 04:18:53;;;;;;;4.95;0.80;;;;;;;6.64;59.49;98716.75;5041600;28;20502;-43
2023/01/17 04:21:19;;;;;;;8.13;1.00;;;;;;;6.42;59.62;98712.50;5040932;28;20041;-41
2023/01/17 04:23:44;;;;;;;11.68;0.90;;;;;;;6.63;59.68;98725.38;5042977;28;20048;-45
2023/01/17 04:26:10;;;;;;;7.45;1.13;;;;;;;6.58;59.42;98714.19;5039171;28;20087;-42
2023/01/17 04:28:36;;;;;;;6.63;0.77;;;;;;;6.80;59.00;98717.50;5043276;28;20128;-41
2023/01/17 04:31:01;;;;;;;8.45;1.20;;;;;;;6.41;59.31;98715.97;5038088;28;20132;-41
2023/01/17 04:33:27;;;;;;;8.82;1.20;;;;;;;6.43;59.32;98720.28;5043001;28;20511;-41
2023/01/17 04:35:53;;;;;;;6.55;0.82;;;;;;;6.63;59.30;98719.31;5042293;28;20124;-55
2023/01/17 04:38:18;;;;;;;5.68;1.00;;;;;;;6.66;59.21;98714.97;5040355;28;20177;-46
2023/01/17 04:40:44;;;;;;;5.72;0.80;;;;;;;6.85;58.52;98720.91;5042819;28;20037;-42
2023/01/17 04:43:09;;;;;;;9.95;0.90;;;;;;;6.71;58.43;98723.56;5039323;28;20083;-44
2023/01/17 04:45:35;;;;;;;4.80;0.95;;;;;;;6.65;58.53;98720.19;5042939;28;20036;-40
2023/01/17 04:48:05;;;;;;;7.43;0.95;;;;;;;6.45;58.95;98723.75;5039869;28;20094;-42
2023/01/17 04:50:31;;;;;;;6.82;0.80;;;;;;;6.68;58.27;98718.44;5041713;28;20044;-40
2023/01/17 04:52:57;;;;;;;7.32;1.20;;;;;;;6.49;59.03;98720.25;5038961;28;20137;-41
2023/01/17 04:55:22;;;;;;;8.75;1.08;;;;;;;6.62;58.32;98726.22;5042666;28;20098;-41
2023/01/17 04:57:48;;;;;;;4.60;0.88;;;;;;;6.44;59.00;98727.19;5043235;28;20041;-41
2023/01/17 05:00:14;;;;;;;5.07;1.10;;;;;;;6.44;59.51;98724.59;5038855;28;20037;-41
2023/01/17 05:02:39;;;;;;;5.82;1.08;;;;;;;6.25;59.48;98727.25;5040348;28;20044;-41
2023/01/17 05:05:06;;;;;;;3.55;0.90;;;;;;;6.30;58.42;98731.53;5039180;28;20128;-41
2023/01/17 05:07:31;;;;;;;8.27;0.80;;;;;;;6.33;58.36;98730.69;5043485;28;20561;-41
2023/01/17 05:09:59;;;;;;;5.03;1.02;;;;;;;6.27;57.80;98735.88;5040187;28;20028;-45
2023/01/17 05:12:26;;;;;;;9.25;1.65;;;;;;;6.52;57.26;98732.34;5043487;28;20572;-44
2023/01/17 05:14:51;;;;;;;6.35;1.05;;;;;;;6.47;57.64;98741.81;5045741;28;20119;-42
2023/01/17 05:17:16;;;;;;;5.68;1.50;;;;;;;6.56;57.71;98741.78;5041885;28;20116;-41
2023/01/17 05:19:41;;;;;;;6.50;1.50;;;;;;;6.40;57.34;98742.75;5045061;28;20040;-40
2023/01/17 05:22:13;;;;;;;6.30;1.23;;;;;;;6.38;56.96;98747.06;5041413;28;20037;-42
2023/01/17 05:24:43;;;;;;;7.80;1.52;;;;;;;6.17;57.56;98750.56;5045962;28;20334;-40
2023/01/17 05:27:10;;;;;;;7.22;1.40;;;;;;;6.07;56.73;98754.91;5039646;28;20565;-43
2023/01/17 05:29:35;;;;;;;5.57;1.55;;;;;;;6.39;56.84;98761.72;5042148;28;20426;-43
2023/01/17 05:32:00;;;;;;;7.95;1.33;;;;;;;6.28;57.29;98761.72;5038800;28;20124;-41
2023/01/17 05:34:26;;;;;;;6.30;1.38;;;;;;;6.38;56.28;98768.63;5043758;28;20094;-41
2023/01/17 05:36:51;;;;;;;5.72;1.02;;;;;;;6.62;56.53;98751.25;5043410;28;20032;-44
2023/01/17 05:39:17;;;;;;;5.28;1.00;;;;;;;6.33;56.22;98769.50;5038423;28;20041;-43
2023/01/17 05:41:42;;;;;;;5.90;1.15;;;;;;;6.58;56.18;98763.38;5041108;28;20111;-45
2023/01/17 05:44:07;;;;;;;5.07;0.98;;;;;;;6.40;56.18;98766.88;5038634;28;20466;-40
2023/01/17 05:46:33;;;;;;;8.18;1.35;;;;;;;6.10;56.58;98769.53;5041826;28;20033;-41
2023/01/17 05:48:58;;;;;;;3.88;1.00;;;;;;;6.26;56.63;98763.50;5038123;28;20407;-42
2023/01/17 05:51:23;;;;;;;4.38;0.98;;;;;;;6.35;56.66;98772.94;5040929;28;20515;-40
2023/01/17 05:53:49;;;;;;;3.33;0.98;;;;;;;6.26;57.21;98775.56;5042229;28;20110;-43
2023/01/17 05:56:14;;;;;;;3.88;1.20;;;;;;;6.16;57.26;98774.69;5038388;28;20399;-40
2023/01/17 05:58:39;;;;;;;4.53;0.90;;;;;;;6.21;57.14;98777.31;5041777;28;20589;-41
2023/01/17 06:01:05;;;;;;;11.60;1.40;;;;;;;6.25;56.11;98785.03;5036840;28;20111;-40
2023/01/17 06:03:30;;;;;;;4.72;1.10;;;;;;;6.09;57.49;98775.59;5041271;28;20041;-40
2023/01/17 06:05:55;;;;;;;6.88;1.02;;;;;;;5.88;57.83;98784.25;5035975;28;20454;-42
2023/01/17 06:08:22;;;;;;;6.47;1.23;;;;;;;5.84;57.00;98786.81;5041531;28;20139;-41
2023/01/17 06:10:48;;;;;;;3.95;1.00;;;;;;;6.09;56.61;98783.38;5041264;28;20040;-44
2023/01/17 06:13:15;;;;;;;7.97;0.90;;;;;;;5.70;57.55;98782.53;5037279;28;20040;-40
2023/01/17 06:15:41;;;;;;;4.13;0.98;;;;;;;5.82;57.90;98780.78;5042048;28;20415;-41
2023/01/17 06:18:09;;;;;;;4.05;1.13;;;;;;;5.69;57.87;98782.50;5039275;28;20037;-45
2023/01/17 06:20:35;;;;;;;6.25;1.13;;;;;;;5.58;57.95;98782.53;5041923;28;20059;-41
2023/01/17 06:23:03;;;;;;;3.17;0.85;;;;;;;5.77;57.65;98793.72;5036987;28;20534;-44
2023/01/17 06:25:29;;;;;;;3.97;1.33;;;;;;;5.45;57.48;98785.09;5041094;28;20061;-39
2023/01/17 06:27:54;;;;;;;6.80;1.65;;;;;;;5.79;57.50;98785.97;5039678;28;20064;-43
2023/01/17 06:30:20;;;;;;;5.55;1.00;;;;;;;5.80;57.10;98788.53;5042649;28;20036;-40
2023/01/17 06:32:53;;;;;;;5.80;1.00;;;;;;;5.84;56.75;98785.09;5046377;28;20109;-41
2023/01/17 06:35:19;;;;;;;2.38;1.00;;;;;;;5.62;56.95;98793.72;5043341;28;20044;-45
2023/01/17 06:37:45;;;;;;;3.63;1.00;;;;;;;5.76;56.71;98797.16;5046765;28;20041;-41
2023/01/17 06:40:11;;;;;;;4.00;1.00;;;;;;;5.67;56.25;98798.03;5043279;28;20033;-38
2023/01/17 06:42:36;;;;;;;2.50;1.05;;;;;;;5.47;57.31;98789.41;5046551;28;20036;-41
2023/01/17 06:45:02;;;;;;;4.07;0.90;;;;;;;5.44;57.70;98785.97;5042462;28;20518;-44
2023/01/17 06:47:27;;;;;;;3.03;0.90;;;;;;;5.45;57.53;98787.69;5046942;28;20057;-45
2023/01/17 06:49:52;;;;;;;4.72;1.02;;;;;;;5.39;57.22;98798.03;5046388;28;20040;-42
2023/01/17 06:52:18;;;;;;;3.78;1.00;;;;;;;5.47;57.80;98793.72;5040737;28;20036;-43
2023/01/17 06:54:43;;;;;;;4.05;0.95;;;;;;;5.23;58.74;98797.16;5047841;28;20064;-41
2023/01/17 06:57:08;;;;;;;6.82;1.10;;;;;;;5.11;58.51;98800.56;5043563;28;20091;-42
2023/01/17 06:59:34;;;;;;;4.10;1.00;;;;;;;5.28;58.04;98800.59;5046040;28;20044;-42
2023/01/17 07:01:59;;;;;;;2.65;0.90;;;;;;;5.21;58.24;98804.88;5040992;28;20167;-43
2023/01/17 07:04:24;;;;;;;5.78;1.05;;;;;;;5.15;58.53;98804.00;5041084;22;20085;-43
2023/01/17 07:06:50;;;;;;;2.70;0.90;;;;;;;5.09;58.75;98802.28;5023755;28;20033;-43
2023/01/17 07:09:15;;;;;;;8.57;1.08;;;;;;;5.04;59.23;98806.59;5021650;28;20040;-44
2023/01/17 07:11:40;;;;;;;2.38;0.95;;;;;;;4.97;59.57;98803.97;5025139;28;20038;-45
2023/01/17 07:14:11;;;;;;;3.78;1.10;;;;;;;4.89;59.58;98811.69;5021468;28;20065;-42
2023/01/17 07:16:36;;;;;;;3.47;1.30;;;;;;;4.81;60.45;98808.25;5024984;28;20029;-43
2023/01/17 07:19:02;;;;;;;3.75;1.25;;;;;;;4.77;60.32;98812.50;5021578;28;20041;-43
2023/01/17 07:21:27;;;;;;;5.68;1.20;;;;;;;4.63;61.08;98810.75;5024392;28;20036;-43
2023/01/17 07:23:52;;;;;;;4.50;1.17;;;;;;;4.68;61.32;98803.88;5025144;28;20037;-45
2023/01/17 07:26:18;;;;;;;7.10;1.02;;;;;;;4.64;61.25;98809.88;5021875;28;20029;-45
2023/01/17 07:28:43;;;;;;;3.85;1.08;;;;;;;4.66;61.53;98808.19;5025092;28;20033;-42
2023/01/17 07:31:09;;;;;;;4.63;1.40;;;;;;;4.66;61.74;98810.75;5020412;28;20048;-42
2023/01/17 07:33:34;;;;;;;6.05;1.20;;;;;;;4.64;61.60;98809.88;5024756;28;20040;-47
2023/01/17 07:36:05;;;;;;;4.03;1.25;;;;;;;4.63;61.67;98805.59;5019228;28;20047;-44
2023/01/17 07:38:30;;;;;;;4.43;1.40;;;;;;;4.60;61.49;98808.16;5024838;28;20160;-43
2023/01/17 07:40:59;;;;;;;8.32;1.45;;;;;;;4.56;61.37;98811.59;5020757;28;20120;-44
2023/01/17 07:43:25;;;;;;;3.65;1.20;;;;;;;4.50;61.32;98815.00;5024263;28;20504;-42
2023/01/17 07:45:51;;;;;;;4.60;1.30;;;;;;;4.46;61.42;98810.66;5024610;28;20033;-46
2023/01/17 07:48:18;;;;;;;3.17;1.05;;;;;;;4.43;62.23;98818.41;5020597;28;20030;-45
2023/01/17 07:50:44;;;;;;;5.30;1.30;;;;;;;4.42;62.71;98814.97;5023222;28;20088;-47
2023/01/17 07:53:09;;;;;;;5.10;1.10;;;;;;;4.44;62.58;98818.41;5020507;28;20042;-45
2023/01/17 07:55:35;;;;;;;5.22;1.20;;;;;;;4.43;62.59;98820.97;5024289;28;20037;-43
2023/01/17 07:58:00;;;;;;;4.15;1.35;;;;;;;4.43;62.78;98820.97;5020549;28;20037;-39
2023/01/17 08:00:26;;;;;;;4.45;1.23;;;;;;;4.43;62.80;98818.41;5023620;28;20040;-44
2023/01/17 08:02:58;;;;;;;4.07;1.45;;;;;;;4.39;62.77;98825.25;5023995;28;20079;-42
2023/01/17 08:05:24;;;;;;;6.10;1.27;;;;;;;4.38;62.79;98820.97;5020856;28;20508;-43
2023/01/17 08:07:50;;;;;;;3.55;1.20;;;;;;;4.38;62.99;98823.53;5024971;28;20118;-43
2023/01/17 08:10:18;;;;;;;3.97;1.30;;;;;;;4.38;63.07;98830.41;5020929;28;20075;-44
2023/01/17 08:12:48;;;;;;;7.00;1.63;;;;;;;4.43;62.92;98823.56;5023294;28;20038;-43
2023/01/17 08:15:17;;;;;;;4.47;1.50;;;;;;;4.46;63.33;98818.41;5019976;28;20082;-44
2023/01/17 08:17:52;;;;;;;5.53;1.70;;;;;;;4.44;63.04;98815.84;5023979;28;20092;-44
2023/01/17 08:20:18;;;;;;;5.03;1.50;;;;;;;4.48;63.36;98815.00;5019642;28;20048;-43
2023/01/17 08:22:43;;;;;;;5.90;1.33;;;;;;;4.53;63.13;98820.16;5023598;28;20073;-44
2023/01/17 08:25:09;;;;;;;3.63;1.40;;;;;;;4.53;63.07;98822.75;5021866;28;20053;-42
2023/01/17 08:27:34;;;;;;;3.88;1.40;;;;;;;4.57;62.56;98824.50;5022393;28;20034;-44
2023/01/17 08:30:00;;;;;;;4.05;1.50;;;;;;;4.61;62.59;98821.06;5022497;28;20076;-44
2023/01/17 08:32:25;;;;;;;3.85;1.40;;;;;;;4.61;62.63;98821.06;5021832;28;20052;-47
2023/01/17 08:34:51;;;;;;;3.63;1.30;;;;;;;4.68;62.25;98819.38;5023453;28;20034;-42
2023/01/17 08:37:16;;;;;;;2.50;1.30;;;;;;;4.72;62.40;98819.38;5019691;28;20411;-45
2023/01/17 08:39:41;;;;;;;3.10;1.40;;;;;;;4.84;62.77;98828.88;5022310;28;20045;-43
2023/01/17 08:42:07;;;;;;;2.88;1.40;;;;;;;4.91;62.16;98820.31;5020789;28;20048;-44
2023/01/17 08:44:32;;;;;;;5.60;1.50;;;;;;;5.01;62.67;98828.94;5022028;28;20044;-44
2023/01/17 08:46:57;;;;;;;5.90;1.60;;;;;;;4.94;61.56;98829.81;5023633;28;20037;-42
2023/01/17 08:49:23;;;;;;;4.00;1.73;;;;;;;5.09;61.33;98819.50;5019158;28;20120;-45
2023/01/17 08:51:50;;;;;;;6.57;1.40;;;;;;;5.19;61.84;98819.50;5022692;28;20037;-44
2023/01/17 08:54:16;;;;;;;6.70;1.75;;;;;;;5.32;61.47;98829.00;5018981;28;20132;-46
2023/01/17 08:56:46;;;;;;;5.95;1.88;;;;;;;5.40;60.44;98823.00;5023748;28;20585;-45
2023/01/17 08:59:11;;;;;;;8.77;1.60;;;;;;;5.55;60.64;98831.63;5027093;28;20040;-45
2023/01/17 09:01:40;;;;;;;5.00;1.60;;;;;;;5.62;59.37;98828.19;5018076;28;20292;-43
2023/01/17 09:04:08;;;;;;;3.88;1.55;;;;;;;5.70;59.58;98828.19;5023270;28;20466;-45
2023/01/17 09:06:38;;;;;;;5.88;1.45;;;;;;;5.72;59.55;98835.09;5018535;28;20087;-43
2023/01/17 09:09:05;;;;;;;3.35;1.75;;;;;;;5.73;59.42;98830.78;5020476;28;20116;-45
2023/01/17 09:11:31;;;;;;;5.57;1.90;;;;;;;5.72;59.54;98834.22;5023389;28;20037;-46
2023/01/17 09:13:56;;;;;;;8.23;1.70;;;;;;;5.63;58.82;98834.22;5023783;28;20554;-43
2023/01/17 09:16:22;;;;;;;5.45;1.48;;;;;;;5.65;59.41;98846.28;5024549;28;20037;-43
2023/01/17 09:18:47;;;;;;;4.95;1.60;;;;;;;5.65;59.31;98838.53;5023720;28;20629;-43
2023/01/17 09:21:15;;;;;;;4.78;1.77;;;;;;;5.61;59.00;98844.53;5022581;28;20088;-43
2023/01/17 09:23:41;;;;;;;6.80;1.80;;;;;;;5.58;59.24;98849.72;5021430;28;20037;-44
2023/01/17 09:26:18;;;;;;;5.13;1.98;;;;;;;5.55;59.22;98847.13;5018661;28;20068;-43
2023/01/17 09:28:43;;;;;;;4.00;2.10;;;;;;;5.58;59.10;98847.16;5025153;28;20044;-44
2023/01/17 09:31:08;;;;;;;9.73;2.30;;;;;;;5.60;59.60;98854.91;5018460;28;20030;-49
2023/01/17 09:33:34;;;;;;;5.45;2.40;;;;;;;5.60;59.22;98862.66;5024327;28;20050;-41
2023/01/17 09:36:03;;;;;;;8.00;2.50;;;;;;;5.64;59.25;98859.22;5020165;28;20356;-45
2023/01/17 09:38:28;;;;;;;6.07;2.60;;;;;;;5.69;59.55;98860.94;5022632;28;20049;-44
2023/01/17 09:40:54;;;;;;;5.90;2.45;;;;;;;5.75;59.34;98865.25;5021939;28;20033;-41
2023/01/17 09:43:31;;;;;;;6.72;2.70;;;;;;;5.80;58.74;98862.66;5020409;28;20060;-46
2023/01/17 09:45:56;;;;;;;7.00;2.50;;;;;;;5.87;59.11;98860.09;5019392;28;20077;-44
2023/01/17 09:48:37;;;;;;;6.75;3.03;;;;;;;5.90;57.95;98869.59;5021039;28;20081;-48
2023/01/17 09:51:11;;;;;;;7.90;3.00;;;;;;;5.94;58.22;98873.91;5021509;28;20025;-43
2023/01/17 09:53:40;;;;;;;8.10;3.03;;;;;;;5.97;57.81;98872.19;5019308;28;20041;-45
2023/01/17 09:56:17;;;;;;;9.00;3.17;;;;;;;6.05;57.68;98875.63;5018965;28;20037;-45
2023/01/17 09:59:07;;;;;;;6.60;3.53;;;;;;;6.08;57.28;98880.81;5022644;28;20026;-43
2023/01/17 10:01:42;;;;;;;12.70;3.97;;;;;;;6.18;58.05;98884.25;5018493;28;20116;-44
2023/01/17 10:04:32;;;;;;;7.10;3.10;;;;;;;6.20;57.55;98884.25;5018929;28;20050;-46
2023/01/17 10:07:12;;;;;;;7.18;3.00;;;;;;;6.39;57.18;98885.94;5026657;28;20514;-44
2023/01/17 10:09:55;;;;;;;8.43;2.75;;;;;;;6.43;56.47;98887.66;5022976;28;20442;-44
2023/01/17 10:12:28;;;;;;;9.80;2.90;;;;;;;6.41;55.49;98889.38;5021897;28;20033;-43
2023/01/17 10:14:53;;;;;;;7.53;2.80;;;;;;;6.51;55.76;98891.97;5026711;28;20056;-41
2023/01/17 10:17:44;;;;;;;6.75;2.90;;;;;;;6.55;55.79;98892.81;5022942;28;21017;-46
2023/01/17 10:20:24;;;;;;;7.07;3.13;;;;;;;6.58;55.51;98902.31;5022962;28;20042;-44
2023/01/17 10:23:04;;;;;;;5.97;2.80;;;;;;;6.58;55.41;98891.94;5026937;28;20037;-49
2023/01/17 10:25:41;;;;;;;7.68;3.03;;;;;;;6.60;55.34;98895.38;5024043;28;20550;-46
2023/01/17 10:28:24;;;;;;;7.18;3.53;;;;;;;6.50;55.35;98904.91;5023442;28;20495;-43
2023/01/17 10:30:56;;;;;;;7.25;3.30;;;;;;;6.58;55.66;98900.59;5026239;28;20034;-43
2023/01/17 10:33:56;;;;;;;7.63;3.40;;;;;;;6.57;55.28;98904.03;5024355;28;20060;-42
2023/01/17 10:36:26;;;;;;;6.72;3.40;;;;;;;6.56;55.43;98901.44;5020391;28;20033;-43
2023/01/17 10:39:21;;;;;;;7.32;3.20;;;;;;;6.59;55.09;98904.03;5027768;28;20037;-43
2023/01/17 10:42:14;;;;;;;8.25;3.33;;;;;;;6.63;55.54;98904.03;5023697;28;20264;-44
2023/01/17 10:44:53;;;;;;;6.20;3.13;;;;;;;6.68;55.17;98901.41;5018997;28;20048;-45
2023/01/17 10:47:21;;;;;;;5.97;3.13;;;;;;;6.76;55.35;98897.09;5025132;28;20037;-44
2023/01/17 10:49:51;;;;;;;8.70;3.40;;;;;;;6.77;54.98;98894.47;5028932;28;20048;-43
2023/01/17 10:52:25;;;;;;;7.55;3.10;;;;;;;6.61;54.27;98900.56;5023908;28;20042;-43
2023/01/17 10:55:25;;;;;;;6.80;3.00;;;;;;;6.74;53.91;98886.72;5026977;28;20048;-43
2023/01/17 10:57:52;;;;;;;7.40;3.15;;;;;;;6.81;53.87;98891.03;5023002;28;20432;-42
2023/01/17 11:00:48;;;;;;;6.28;2.50;;;;;;;6.92;54.13;98894.44;5021670;28;22132;-42
2023/01/17 11:03:16;;;;;;;7.57;2.90;;;;;;;6.95;53.43;98903.94;5021858;28;20041;-47
2023/01/17 11:05:42;;;;;;;7.18;2.60;;;;;;;7.03;53.44;98898.69;5025520;28;20021;-42
2023/01/17 11:08:10;;;;;;;5.72;2.53;;;;;;;7.09;53.32;98898.66;5023453;28;20555;-45
2023/01/17 11:10:53;;;;;;;6.60;2.80;;;;;;;7.09;52.54;98901.25;5023489;28;20029;-45
2023/01/17 11:13:21;;;;;;;5.07;2.78;;;;;;;7.17;52.67;98896.91;5021222;28;20083;-44
2023/01/17 11:15:49;;;;;;;5.82;2.47;;;;;;;7.23;53.15;98889.13;5025243;28;20033;-45
2023/01/17 11:18:18;;;;;;;8.75;2.97;;;;;;;7.25;53.55;98885.66;5024302;28;20037;-41
2023/01/17 11:20:43;;;;;;;7.40;3.00;;;;;;;7.27;53.45;98894.25;5020819;28;20033;-41
2023/01/17 11:23:20;;;;;;;7.65;2.78;;;;;;;7.24;53.86;98891.69;5023076;28;20037;-44
2023/01/17 11:25:54;;;;;;;7.68;2.13;;;;;;;7.26;52.91;98889.06;5023800;28;20222;-46
2023/01/17 11:28:29;;;;;;;5.75;2.63;;;;;;;7.31;52.52;98888.22;5021360;28;20033;-48
2023/01/17 11:31:08;;;;;;;4.95;2.60;;;;;;;7.37;52.60;98889.03;5024050;28;20076;-41
2023/01/17 11:33:33;;;;;;;7.28;2.78;;;;;;;7.43;52.69;98886.41;5021768;28;20037;-46
2023/01/17 11:35:58;;;;;;;6.43;2.50;;;;;;;7.40;52.46;98883.84;5028748;28;20041;-44
2023/01/17 11:38:24;;;;;;;4.28;2.40;;;;;;;7.54;52.07;98882.03;5021530;28;20033;-45
2023/01/17 11:40:52;;;;;;;4.38;2.10;;;;;;;7.56;52.20;98882.88;5024187;28;20082;-44
2023/01/17 11:43:17;;;;;;;4.65;2.17;;;;;;;7.58;51.29;98876.81;5021483;28;20065;-44
2023/01/17 11:45:44;;;;;;;5.28;2.00;;;;;;;7.39;49.67;98879.50;5025002;28;20056;-45
2023/01/17 11:48:11;;;;;;;6.45;2.08;;;;;;;7.22;50.15;98880.47;5021073;28;20114;-42
2023/01/17 11:50:39;;;;;;;4.82;1.73;;;;;;;7.67;49.85;98879.34;5024149;28;20384;-46
2023/01/17 11:53:19;;;;;;;6.47;1.80;;;;;;;7.53;49.10;98880.31;5021110;28;20116;-43
2023/01/17 11:56:04;;;;;;;3.53;1.30;;;;;;;7.32;47.59;98870.91;5025127;28;20075;-47
2023/01/17 11:58:32;;;;;;;6.38;1.17;;;;;;;7.41;47.98;98868.28;5021725;28;20041;-46
2023/01/17 12:00:57;;;;;;;1.83;0.90;;;;;;;7.28;47.42;98870.06;5024147;28;20045;-40
2023/01/17 12:03:36;;;;;;;7.68;1.50;;;;;;;7.37;48.65;98865.72;5021213;28;20420;-43
2023/01/17 12:07:06;;;;;;;2.42;1.10;;;;;;;7.35;47.69;98868.31;5024389;28;20069;-40
2023/01/17 12:09:44;;;;;;;1.90;1.00;;;;;;;7.56;47.61;98862.16;4969286;28;20515;-44
2023/01/17 12:15:44;;;;;;;2.22;1.00;;;;;;;7.52;48.07;98863.00;5024610;28;20040;-43
2023/01/17 12:18:12;;;;;;;4.00;1.08;;;;;;;7.49;48.04;98863.06;5005303;28;20056;-45
2023/01/17 12:21:04;;;;;;;1.50;0.90;;;;;;;7.61;48.60;98863.84;5024007;28;20041;-44
2023/01/17 12:23:50;;;;;;;1.85;1.00;;;;;;;7.73;47.02;98857.69;5023945;28;20488;-45
2023/01/17 12:26:34;;;;;;;2.13;1.08;;;;;;;7.79;46.59;98851.59;5021404;28;20038;-44
2023/01/17 12:29:08;;;;;;;3.63;1.10;;;;;;;7.96;46.95;98857.50;5023664;28;20036;-45
2023/01/17 12:31:56;;;;;;;1.92;0.80;;;;;;;7.75;45.68;98848.16;5026972;28;20083;-44
2023/01/17 12:34:39;;;;;;;1.77;1.00;;;;;;;7.53;46.24;98851.78;5012296;28;20108;-43
2023/01/17 12:37:30;;;;;;;3.20;1.00;;;;;;;7.92;47.61;98853.22;5020419;28;20080;-49
2023/01/17 12:40:16;;;;;;;4.57;0.98;;;;;;;7.98;47.09;98846.25;5025344;28;20030;-47
2023/01/17 12:42:53;;;;;;;3.13;1.10;;;;;;;8.07;46.83;98840.97;5019148;28;20060;-48
2023/01/17 12:45:32;;;;;;;3.33;1.08;;;;;;;8.03;46.60;98843.63;5021059;28;20037;-44
2023/01/17 12:48:03;;;;;;;2.25;1.10;;;;;;;7.80;47.67;98843.81;5019835;28;20037;-45
2023/01/17 12:50:42;;;;;;;2.53;1.00;;;;;;;8.12;46.63;98840.91;5022847;28;20030;-43
2023/01/17 12:53:40;;;;;;;2.17;0.95;;;;;;;7.99;46.93;98845.34;5019775;28;20073;-43
2023/01/17 12:56:25;;;;;;;4.45;1.10;;;;;;;7.74;46.39;98843.88;5011991;28;20215;-44
2023/01/17 12:58:55;;;;;;;3.05;0.90;;;;;;;7.94;46.56;98843.66;5024182;28;20472;-43
2023/01/17 13:01:42;;;;;;;2.33;1.10;;;;;;;8.06;46.46;98841.84;5021046;28;20484;-45
2023/01/17 13:04:24;;;;;;;2.50;1.00;;;;;;;7.79;47.79;98843.81;5030102;22;20074;-42
2023/01/17 13:06:59;;;;;;;2.13;0.95;;;;;;;7.99;46.30;98844.53;4962885;28;20038;-41
2023/01/17 13:09:33;;;;;;;1.92;0.95;;;;;;;8.08;45.74;98837.50;4959750;28;20053;-42
2023/01/17 13:12:10;;;;;;;3.83;1.08;;;;;;;7.96;46.30;98837.63;4958424;28;20054;-46
2023/01/17 13:14:36;;;;;;;3.85;0.93;;;;;;;8.38;45.31;98833.78;4962012;28;20561;-41
2023/01/17 13:17:23;;;;;;;3.38;1.00;;;;;;;8.33;46.15;98838.16;4958364;28;20043;-44
2023/01/17 13:19:59;;;;;;;2.15;0.90;;;;;;;8.06;44.33;98836.66;4961945;28;20035;-41
2023/01/17 13:22:26;;;;;;;3.90;0.90;;;;;;;7.78;45.15;98842.09;4957285;28;20553;-41
2023/01/17 13:25:19;;;;;;;1.80;1.00;;;;;;;8.18;45.43;98843.44;4961762;28;20128;-43